Columbia Station, Ohio
Current Conditions -  °F | °C
As of 11:51 AM on Friday 31 Oct 2014 (Local Time) from KCLE Reporting Station
Overcast Overcast  
Wind Chill: 43°   Ceiling: 3800
Heat Index: 47°   Visibility: 10mi
Dew Point: 35°   Wind: 8mph
Humidity: 63%   Direction: 190°S
Pressure: 29.92"   Gusts: NA
Location:  41.31°N, 81.95°W
Report Text: KCLE 311551Z 19007KT 10SM BKN038 BKN046 OVC080 08/02 A2992 RMK AO2 SLP135 T00830017 $
Loading
Personal Weather Stations






























Interactive Weather Map
Tropical Storm Tracking
New forecast layout! Learn more

10-Day Weather Forecast

Advertisements
Track Severe Weather on mobile